Time;durP1;ratioP1;P1;durP2;ratioP2;P2;SDS_P1;SDS_P2;PMS_P1;PMS_P2;Temp;Humidity;BMP_temperature;BMP_pressure;BME280_temperature;BME280_humidity;BME280_pressure;Samples;Min_cycle;Max_cycle;Signal;HPM_P1;HPM_P2
2023/10/18 00:01:26;;;;;;;7.72;3.80;;;;;;;22.51;60.41;98025.50;4974340;28;20499;-74
2023/10/18 00:03:56;;;;;;;9.90;4.57;;;;;;;22.52;60.23;98026.41;4974695;28;20066;-74
2023/10/18 00:06:23;;;;;;;10.02;4.30;;;;;;;22.51;60.46;98036.16;4974232;28;20115;-74
2023/10/18 00:08:49;;;;;;;8.10;4.03;;;;;;;22.53;60.60;98044.84;4974195;28;20023;-74
2023/10/18 00:11:16;;;;;;;7.57;3.63;;;;;;;22.51;60.76;98040.63;4974628;28;20431;-74
2023/10/18 00:13:50;;;;;;;9.52;4.28;;;;;;;22.51;60.53;98029.97;4974140;28;20027;-74
2023/10/18 00:16:16;;;;;;;10.20;4.15;;;;;;;22.55;60.16;98022.63;4974272;28;20034;-74
2023/10/18 00:18:42;;;;;;;8.15;4.10;;;;;;;22.50;60.18;98023.84;4973011;28;20030;-74
2023/10/18 00:21:08;;;;;;;10.40;3.97;;;;;;;22.49;60.58;98008.88;4974440;28;20035;-74
2023/10/18 00:23:33;;;;;;;7.90;3.80;;;;;;;22.49;60.64;97995.59;4973897;28;20479;-74
2023/10/18 00:26:08;;;;;;;11.32;4.82;;;;;;;22.52;60.63;98003.31;4973802;28;20538;-75
2023/10/18 00:28:37;;;;;;;8.03;4.00;;;;;;;22.55;60.21;97993.38;4974181;28;20030;-74
2023/10/18 00:31:12;;;;;;;9.07;4.57;;;;;;;22.47;60.66;97989.56;4974212;28;20616;-74
2023/10/18 00:33:39;;;;;;;8.50;3.72;;;;;;;22.51;60.32;97984.78;4974082;28;20026;-73
2023/10/18 00:36:04;;;;;;;10.68;3.95;;;;;;;22.53;60.47;97975.72;4974028;28;20073;-74
2023/10/18 00:38:30;;;;;;;9.13;4.00;;;;;;;22.55;60.25;97972.94;4973705;28;20054;-74
2023/10/18 00:40:56;;;;;;;7.57;4.00;;;;;;;22.52;60.52;97968.75;4974088;28;20039;-75
2023/10/18 00:43:23;;;;;;;8.55;3.40;;;;;;;22.54;60.54;97973.94;4973887;28;20031;-74
2023/10/18 00:45:53;;;;;;;8.15;4.10;;;;;;;22.56;60.23;97947.22;4973802;28;20058;-74
2023/10/18 00:48:20;;;;;;;6.35;3.60;;;;;;;22.56;60.19;97965.81;4973797;28;20041;-73
2023/10/18 00:50:48;;;;;;;8.18;3.83;;;;;;;22.56;59.99;97968.47;4928822;28;1308632;-74
2023/10/18 00:53:23;;;;;;;8.73;4.30;;;;;;;22.56;60.23;97968.47;4974315;28;20106;-74
2023/10/18 00:55:57;;;;;;;8.70;3.83;;;;;;;22.52;60.26;97966.09;4974377;28;20058;-74
2023/10/18 00:58:33;;;;;;;8.55;3.72;;;;;;;22.49;60.67;97966.34;4974390;28;20034;-74
2023/10/18 01:01:09;;;;;;;8.65;3.83;;;;;;;22.51;60.25;97953.75;4974554;28;20027;-75
2023/10/18 01:03:36;;;;;;;10.10;4.03;;;;;;;22.55;60.14;97945.53;4974385;28;20105;-74
2023/10/18 01:06:08;;;;;;;10.32;3.90;;;;;;;22.54;60.38;97907.47;4974022;28;20054;-75
2023/10/18 01:08:37;;;;;;;6.70;3.67;;;;;;;22.53;60.58;97900.50;4974330;28;20037;-74
2023/10/18 01:11:07;;;;;;;8.93;4.03;;;;;;;22.49;60.70;97902.56;4973325;28;20030;-74
2023/10/18 01:13:41;;;;;;;8.38;4.18;;;;;;;22.51;60.47;97889.09;4972905;28;20521;-74
2023/10/18 01:16:14;;;;;;;6.75;3.10;;;;;;;22.50;60.28;97909.56;4974332;28;20058;-74
2023/10/18 01:18:44;;;;;;;10.32;4.45;;;;;;;22.52;60.47;97902.28;4974219;28;20475;-74
2023/10/18 01:21:16;;;;;;;8.07;3.75;;;;;;;22.47;60.75;97907.16;4973869;28;20039;-73
2023/10/18 01:23:53;;;;;;;8.27;4.07;;;;;;;22.47;60.58;97885.91;4974213;28;20038;-74
2023/10/18 01:26:21;;;;;;;8.68;3.97;;;;;;;22.49;60.67;97883.09;4973771;28;20042;-74
2023/10/18 01:28:47;;;;;;;10.15;4.10;;;;;;;22.49;60.88;97889.28;4974034;28;20053;-74
2023/10/18 01:31:13;;;;;;;8.45;4.60;;;;;;;22.47;60.33;97904.50;4973982;28;20023;-74
2023/10/18 01:33:46;;;;;;;10.57;4.45;;;;;;;22.45;60.92;97898.50;4973953;28;20414;-74
2023/10/18 01:36:14;;;;;;;10.77;4.15;;;;;;;22.45;60.58;97898.50;4973621;28;20052;-74
2023/10/18 01:38:42;;;;;;;8.23;4.00;;;;;;;22.46;60.66;97883.41;4973667;28;20061;-74
2023/10/18 01:41:25;;;;;;;7.47;3.83;;;;;;;22.49;60.61;97888.41;4973774;28;20019;-74
2023/10/18 01:43:51;;;;;;;9.35;3.70;;;;;;;22.50;60.74;97890.09;4973816;28;20504;-74
2023/10/18 01:46:17;;;;;;;8.38;4.03;;;;;;;22.46;60.33;97900.16;4973555;28;20035;-74
2023/10/18 01:48:50;;;;;;;9.05;3.75;;;;;;;22.43;60.60;97884.53;4973877;28;20036;-74
2023/10/18 01:51:15;;;;;;;6.22;3.17;;;;;;;22.43;60.81;97879.22;4973401;28;20066;-74
2023/10/18 01:53:43;;;;;;;7.75;3.75;;;;;;;22.48;60.23;97871.63;4973742;28;20030;-74
2023/10/18 01:56:09;;;;;;;9.18;3.67;;;;;;;22.48;60.53;97865.50;4973407;28;20035;-73
2023/10/18 01:58:35;;;;;;;7.18;3.85;;;;;;;22.48;60.39;97866.31;4973557;28;20035;-73
2023/10/18 02:01:08;;;;;;;8.13;3.75;;;;;;;22.46;60.58;97860.31;4973670;28;20031;-74
2023/10/18 02:03:34;;;;;;;9.15;3.60;;;;;;;22.48;60.54;97866.31;4973241;28;20052;-74
2023/10/18 02:06:00;;;;;;;8.30;3.70;;;;;;;22.44;60.44;97854.31;4973401;28;20035;-74
2023/10/18 02:08:26;;;;;;;9.27;3.95;;;;;;;22.45;60.53;97847.16;4973528;28;20033;-75
2023/10/18 02:10:52;;;;;;;9.13;4.88;;;;;;;22.48;60.25;97844.22;4973225;28;20034;-74
2023/10/18 02:13:19;;;;;;;8.68;3.20;;;;;;;22.48;60.56;97855.69;4973572;28;20023;-74
2023/10/18 02:15:45;;;;;;;7.10;3.42;;;;;;;22.43;60.49;97842.00;4973187;28;20019;-74
2023/10/18 02:18:11;;;;;;;8.13;3.58;;;;;;;22.46;60.65;97847.03;4973016;28;20742;-74
2023/10/18 02:20:53;;;;;;;9.07;3.80;;;;;;;22.45;60.60;97832.06;4973573;28;20047;-74
2023/10/18 02:23:21;;;;;;;9.18;3.90;;;;;;;22.48;60.37;97823.78;4976407;28;20049;-74
2023/10/18 02:25:47;;;;;;;7.75;3.90;;;;;;;22.46;60.25;97824.94;4977321;28;20093;-74
2023/10/18 02:28:23;;;;;;;7.70;3.38;;;;;;;22.45;60.22;97818.78;4977268;28;20467;-74
2023/10/18 02:33:44;;;;;;;9.45;4.07;;;;;;;22.48;60.34;97823.78;4976871;28;20411;-74
2023/10/18 02:36:11;;;;;;;8.85;4.05;;;;;;;22.49;60.02;97828.16;4977197;28;20038;-72
2023/10/18 02:38:41;;;;;;;10.20;4.28;;;;;;;22.49;60.18;97819.31;4976950;28;20394;-75
2023/10/18 02:41:26;;;;;;;7.90;3.42;;;;;;;22.49;60.25;97808.69;4977198;28;20038;-74
2023/10/18 02:43:55;;;;;;;8.63;3.38;;;;;;;22.49;59.87;97809.53;4977100;28;20107;-74
2023/10/18 02:46:24;;;;;;;7.88;3.80;;;;;;;22.51;59.62;97796.94;4976899;28;20399;-75
2023/10/18 02:48:54;;;;;;;11.20;3.83;;;;;;;22.48;60.30;97813.16;4976590;28;20467;-74
2023/10/18 02:51:24;;;;;;;7.13;3.70;;;;;;;22.47;60.09;97815.97;4959403;28;20507;-74
2023/10/18 02:53:54;;;;;;;8.60;3.85;;;;;;;22.41;60.49;97801.44;4976907;28;20102;-74
2023/10/18 02:59:14;;;;;;;7.75;3.33;;;;;;;22.45;60.37;97792.19;4949933;28;20039;-74
2023/10/18 03:01:44;;;;;;;7.45;3.65;;;;;;;22.48;60.51;97796.38;4959068;28;20311;-73
2023/10/18 03:04:14;;;;;;;7.00;3.25;;;;;;;22.49;59.79;97787.41;4976667;28;20089;-74
2023/10/18 03:06:40;;;;;;;8.68;3.75;;;;;;;22.46;60.38;97775.25;4976559;28;20122;-74
2023/10/18 03:09:18;;;;;;;6.78;3.40;;;;;;;22.49;60.21;97780.31;4976621;28;20110;-74
2023/10/18 03:11:44;;;;;;;9.45;3.58;;;;;;;22.50;59.98;97779.31;4976599;28;20038;-74
2023/10/18 03:14:12;;;;;;;7.90;3.90;;;;;;;22.50;60.14;97789.94;4976597;28;20451;-73
2023/10/18 03:19:11;;;;;;;9.27;4.05;;;;;;;22.45;60.51;97797.50;4976721;28;20022;-74
2023/10/18 03:21:37;;;;;;;8.00;4.05;;;;;;;22.45;60.57;97786.88;4976502;28;20027;-74
2023/10/18 03:24:04;;;;;;;7.05;3.67;;;;;;;22.46;60.10;97785.88;4976297;28;20082;-74
2023/10/18 03:26:35;;;;;;;10.50;3.83;;;;;;;22.43;60.34;97783.53;4976032;28;20058;-74
2023/10/18 03:29:15;;;;;;;7.35;3.72;;;;;;;22.43;60.20;97783.53;4976320;28;20065;-74
2023/10/18 03:31:43;;;;;;;10.55;4.72;;;;;;;22.47;59.74;97779.59;4975827;28;20051;-74
2023/10/18 03:34:16;;;;;;;8.32;3.72;;;;;;;22.46;60.18;97769.94;4973774;28;20030;-73
2023/10/18 03:36:54;;;;;;;7.28;3.70;;;;;;;22.51;59.87;97770.34;4976118;28;20399;-74
2023/10/18 03:39:21;;;;;;;9.75;4.25;;;;;;;22.50;60.29;97768.69;4975879;28;20031;-75
2023/10/18 03:41:50;;;;;;;10.85;4.05;;;;;;;22.53;59.99;97768.41;4975825;28;20023;-75
2023/10/18 03:44:21;;;;;;;7.90;3.58;;;;;;;22.49;60.41;97767.00;4975861;28;20056;-74
2023/10/18 03:46:47;;;;;;;7.88;3.53;;;;;;;22.51;60.05;97765.03;4975383;28;20462;-73
2023/10/18 03:49:33;;;;;;;7.28;3.72;;;;;;;22.51;60.38;97769.50;4976144;28;20035;-74
2023/10/18 03:52:18;;;;;;;6.90;3.75;;;;;;;22.50;60.20;97770.50;4975521;28;20049;-74
2023/10/18 03:57:28;;;;;;;7.90;3.75;;;;;;;22.50;59.98;97763.38;4975555;28;20117;-72
2023/10/18 04:00:10;;;;;;;8.05;3.80;;;;;;;22.52;60.01;97771.22;4975434;28;20027;-74
2023/10/18 04:02:45;;;;;;;8.68;3.67;;;;;;;22.51;60.08;97767.69;4975616;28;20034;-74
2023/10/18 04:05:22;;;;;;;8.70;4.38;;;;;;;22.54;60.08;97763.94;4975224;28;20031;-74
2023/10/18 04:07:48;;;;;;;10.25;4.13;;;;;;;22.54;59.94;97758.63;4975577;28;20027;-74
2023/10/18 04:10:17;;;;;;;7.75;3.67;;;;;;;22.53;60.12;97755.13;4975356;28;20082;-75
2023/10/18 04:12:44;;;;;;;9.60;3.95;;;;;;;22.56;59.83;97748.69;4975597;28;20074;-75
2023/10/18 04:15:22;;;;;;;10.48;4.45;;;;;;;22.55;59.83;97754.16;4975152;28;20046;-74
2023/10/18 04:18:02;;;;;;;10.55;3.88;;;;;;;22.56;59.96;97747.84;4975508;28;20037;-74
2023/10/18 04:20:31;;;;;;;6.53;3.33;;;;;;;22.55;60.07;97748.84;4975446;28;20094;-75
2023/10/18 04:22:57;;;;;;;9.13;3.45;;;;;;;22.51;59.95;97743.78;4975165;28;20027;-73
2023/10/18 04:25:36;;;;;;;8.80;3.83;;;;;;;22.47;60.39;97747.69;4975226;28;20034;-74
2023/10/18 04:28:02;;;;;;;8.00;3.95;;;;;;;22.49;60.36;97740.44;4975165;28;20555;-74
2023/10/18 04:30:31;;;;;;;10.05;3.72;;;;;;;22.50;60.47;97741.25;4974843;28;20054;-74
2023/10/18 04:35:45;;;;;;;8.98;3.60;;;;;;;22.52;60.36;97740.16;4889488;29;20045;-74
2023/10/18 04:38:30;;;;;;;8.50;3.53;;;;;;;22.48;60.45;97744.06;4896348;29;20041;-74
2023/10/18 04:43:27;;;;;;;12.07;4.00;;;;;;;22.50;59.74;97743.91;4896128;29;20037;-74
2023/10/18 04:46:14;;;;;;;9.80;4.13;;;;;;;22.52;60.19;97740.16;4895824;29;20040;-74
2023/10/18 04:51:33;;;;;;;9.98;3.55;;;;;;;22.55;60.11;97730.25;4891167;29;20052;-74
2023/10/18 04:54:08;;;;;;;8.27;4.00;;;;;;;22.56;60.17;97729.25;4883953;29;20474;-74
2023/10/18 04:56:34;;;;;;;7.25;3.67;;;;;;;22.56;59.99;97724.75;4877333;29;20033;-75
2023/10/18 04:59:06;;;;;;;10.68;4.05;;;;;;;22.56;60.13;97723.94;4877119;29;20073;-74
2023/10/18 05:01:35;;;;;;;7.72;3.72;;;;;;;22.55;59.96;97719.59;4877480;29;20410;-74
2023/10/18 05:07:00;;;;;;;7.40;3.53;;;;;;;22.53;60.35;97715.25;4888693;29;20104;-74
2023/10/18 05:09:43;;;;;;;10.10;3.90;;;;;;;22.55;60.21;97706.31;4895804;29;20079;-74
2023/10/18 05:17:33;;;;;;;8.18;3.78;;;;;;;22.57;60.08;97699.03;4974233;28;20039;-74
2023/10/18 05:20:09;;;;;;;5.90;3.50;;;;;;;22.56;59.96;97700.00;4974155;28;20042;-74
2023/10/18 05:22:41;;;;;;;8.63;3.70;;;;;;;22.57;59.98;97688.38;4974152;28;20030;-74
2023/10/18 05:27:59;;;;;;;9.43;4.20;;;;;;;22.54;60.31;97689.53;4973780;28;20054;-74
2023/10/18 05:30:26;;;;;;;9.80;3.38;;;;;;;22.51;60.66;97693.28;4974151;28;20031;-74
2023/10/18 05:35:27;;;;;;;7.50;3.85;;;;;;;22.54;60.51;97689.53;4974091;28;20034;-74
2023/10/18 05:37:58;;;;;;;8.90;4.13;;;;;;;22.51;60.52;97685.31;4974188;28;20081;-74
2023/10/18 05:43:22;;;;;;;10.63;3.78;;;;;;;22.52;60.30;97689.66;4973715;28;20093;-73
2023/10/18 05:45:56;;;;;;;8.73;4.32;;;;;;;22.51;60.22;97689.75;4973747;28;20031;-74
2023/10/18 05:48:22;;;;;;;9.23;4.03;;;;;;;22.48;60.28;97666.97;4973769;28;20039;-74
2023/10/18 05:50:49;;;;;;;9.75;3.90;;;;;;;22.47;60.27;97683.91;4973772;28;20189;-74
2023/10/18 05:53:24;;;;;;;5.85;3.22;;;;;;;22.46;60.34;97681.44;4973621;28;20042;-74
2023/10/18 05:55:52;;;;;;;8.88;4.55;;;;;;;22.51;59.88;97682.63;4973321;28;20549;-74
2023/10/18 05:58:25;;;;;;;8.48;4.15;;;;;;;22.49;60.45;97692.59;4973051;28;20037;-74
2023/10/18 06:00:52;;;;;;;8.57;4.18;;;;;;;22.43;60.71;97693.19;4973656;28;20408;-74
2023/10/18 06:03:19;;;;;;;9.70;3.65;;;;;;;22.43;60.66;97690.53;4973610;28;20030;-74
2023/10/18 06:05:45;;;;;;;7.97;3.58;;;;;;;22.42;60.80;97702.09;4973160;28;20038;-75
2023/10/18 06:08:13;;;;;;;9.02;4.15;;;;;;;22.39;60.84;97697.09;4972308;28;20034;-74
2023/10/18 06:10:38;;;;;;;9.88;4.20;;;;;;;22.37;60.64;97707.06;4973014;28;20026;-74
2023/10/18 06:13:10;;;;;;;7.70;3.63;;;;;;;22.37;60.72;97704.41;4973512;28;20407;-74
2023/10/18 06:15:38;;;;;;;8.98;3.67;;;;;;;22.36;60.71;97705.34;4973251;28;20038;-74
2023/10/18 06:18:07;;;;;;;9.20;3.90;;;;;;;22.33;60.70;97713.63;4973433;28;20026;-74
2023/10/18 06:20:41;;;;;;;9.27;4.25;;;;;;;22.36;60.22;97715.97;4973392;28;20101;-74
2023/10/18 06:23:09;;;;;;;9.73;3.97;;;;;;;;;;4973286;28;20399;-74
2023/10/18 06:25:49;;;;;;;10.80;4.50;;;;;;;22.32;60.82;97714.63;4972991;28;20395;-75
2023/10/18 06:28:21;;;;;;;8.57;3.70;;;;;;;22.34;60.64;97715.31;4972000;28;20031;-75
2023/10/18 06:30:50;;;;;;;9.23;3.80;;;;;;;22.40;60.36;97720.88;4973069;28;20038;-74
2023/10/18 06:33:19;;;;;;;8.43;4.20;;;;;;;22.40;60.37;97720.03;4972722;28;20053;-74
2023/10/18 06:35:53;;;;;;;7.35;3.95;;;;;;;22.37;60.68;97720.34;4973111;28;20052;-74
2023/10/18 06:38:23;;;;;;;10.30;4.22;;;;;;;22.40;60.35;97720.03;4973201;28;20047;-74
2023/10/18 06:40:53;;;;;;;12.20;3.88;;;;;;;22.43;60.48;97717.09;4972784;28;20051;-75
2023/10/18 06:43:20;;;;;;;9.50;3.95;;;;;;;22.45;59.95;97727.56;4973136;28;20471;-75
2023/10/18 06:45:48;;;;;;;9.32;4.90;;;;;;;22.47;60.27;97729.09;4973178;28;20035;-74
2023/10/18 06:48:15;;;;;;;11.35;4.00;;;;;;;22.41;60.42;97729.69;4973014;28;20423;-74
2023/10/18 06:50:41;;;;;;;9.70;4.78;;;;;;;22.39;60.64;97739.63;4972873;28;20056;-74
2023/10/18 06:53:06;;;;;;;9.32;4.30;;;;;;;22.44;59.86;97737.38;4973164;28;20034;-74
2023/10/18 06:55:56;;;;;;;11.35;4.30;;;;;;;22.43;60.23;97737.50;4972432;28;20376;-75
2023/10/18 07:01:00;;;;;;;9.30;4.28;;;;;;;22.37;60.30;97736.28;4972849;28;20056;-74
2023/10/18 07:03:29;;;;;;;10.07;3.90;;;;;;;22.38;60.58;97740.59;4972919;28;20038;-74
2023/10/18 07:05:57;;;;;;;8.68;3.60;;;;;;;22.38;60.30;97743.28;4972809;28;20027;-74
2023/10/18 07:08:39;;;;;;;9.82;4.20;;;;;;;22.37;60.01;97730.97;4973944;28;20507;-74
2023/10/18 07:11:08;;;;;;;9.95;4.60;;;;;;;22.39;60.42;97736.97;4976578;28;20491;-75
2023/10/18 07:13:34;;;;;;;8.80;4.15;;;;;;;22.41;59.63;97742.97;4976505;28;20034;-74
2023/10/18 07:16:00;;;;;;;8.07;4.13;;;;;;;22.42;59.79;97747.28;4976456;28;20023;-74
2023/10/18 07:18:27;;;;;;;10.63;4.10;;;;;;;22.43;59.23;97746.34;4976417;28;20475;-74
2023/10/18 07:20:52;;;;;;;9.20;4.18;;;;;;;22.44;59.31;97755.97;4976345;28;20034;-74
2023/10/18 07:23:21;;;;;;;10.70;4.25;;;;;;;22.44;59.41;97737.38;4976009;28;20026;-74
2023/10/18 07:25:48;;;;;;;11.07;4.13;;;;;;;22.45;59.25;97749.66;4976255;28;20110;-74
2023/10/18 07:28:14;;;;;;;8.20;4.35;;;;;;;22.46;59.23;97754.00;4975952;28;20031;-74
2023/10/18 07:30:44;;;;;;;12.68;4.78;;;;;;;22.48;59.13;97753.84;4976321;28;20402;-74
2023/10/18 07:33:10;;;;;;;10.52;3.90;;;;;;;22.48;59.15;97753.84;4976192;28;20554;-75
2023/10/18 07:35:37;;;;;;;10.00;4.47;;;;;;;22.48;59.25;97765.31;4976059;28;20031;-75
2023/10/18 07:38:03;;;;;;;8.88;4.60;;;;;;;22.48;59.21;97760.00;4975683;28;20043;-74
2023/10/18 07:40:34;;;;;;;10.45;4.75;;;;;;;22.48;59.10;97765.31;4976283;28;20107;-74
2023/10/18 07:43:00;;;;;;;7.78;4.45;;;;;;;22.49;59.09;97764.34;4976521;28;20505;-74
2023/10/18 07:45:28;;;;;;;10.20;4.15;;;;;;;22.49;59.23;97771.47;4976144;28;20058;-74
2023/10/18 07:47:54;;;;;;;11.70;4.90;;;;;;;22.50;59.22;97768.69;4975937;28;20031;-74
2023/10/18 07:53:05;;;;;;;11.13;4.22;;;;;;;22.51;59.22;97764.19;4975442;28;20039;-75
2023/10/18 07:55:36;;;;;;;10.75;4.53;;;;;;;22.51;59.07;97767.69;4975437;28;20368;-75
2023/10/18 07:58:24;;;;;;;8.55;3.88;;;;;;;22.52;59.07;97777.38;4975610;28;20037;-74
2023/10/18 08:03:31;;;;;;;9.57;3.67;;;;;;;22.52;59.25;97777.38;4975454;28;20027;-75
2023/10/18 08:05:57;;;;;;;9.55;4.03;;;;;;;22.53;59.32;97778.22;4975093;28;20040;-75
2023/10/18 08:08:26;;;;;;;8.13;3.92;;;;;;;22.52;59.23;97785.34;4975464;28;20085;-74
2023/10/18 08:10:55;;;;;;;10.63;4.68;;;;;;;22.53;59.33;97776.38;4975553;28;20037;-75
2023/10/18 08:13:27;;;;;;;8.70;3.80;;;;;;;22.54;59.25;97774.56;4975478;28;20022;-75
2023/10/18 08:15:53;;;;;;;11.05;4.40;;;;;;;22.55;58.91;97783.41;4975163;28;20513;-74
2023/10/18 08:18:21;;;;;;;11.60;4.25;;;;;;;22.56;59.08;97777.09;4974142;28;20037;-74
2023/10/18 08:23:34;;;;;;;11.32;4.05;;;;;;;22.55;59.05;97767.44;4975387;28;20058;-74
2023/10/18 08:26:04;;;;;;;9.85;4.45;;;;;;;22.58;58.79;97772.47;4955926;29;20023;-75
2023/10/18 08:28:40;;;;;;;10.48;4.47;;;;;;;22.56;59.25;97780.56;4938671;29;20043;-74
2023/10/18 08:31:26;;;;;;;10.15;4.20;;;;;;;22.58;58.92;97796.38;4956012;29;20047;-74
2023/10/18 08:33:54;;;;;;;9.85;4.30;;;;;;;22.58;59.04;97791.91;4955805;29;20035;-73
2023/10/18 08:36:29;;;;;;;10.82;4.97;;;;;;;22.58;58.95;97797.22;4955322;29;20396;-74
2023/10/18 08:38:58;;;;;;;10.88;4.40;;;;;;;22.58;59.14;97802.56;4958405;28;20050;-74
2023/10/18 08:41:33;;;;;;;14.30;4.50;;;;;;;22.59;58.95;97808.69;4974737;28;20398;-74
2023/10/18 08:44:27;;;;;;;10.18;4.43;;;;;;;22.60;58.93;97810.34;4957558;28;20680;-74
2023/10/18 08:47:04;;;;;;;13.90;5.07;;;;;;;22.61;59.06;97828.00;4974551;28;20062;-74
2023/10/18 08:49:33;;;;;;;10.63;4.53;;;;;;;22.62;59.19;97835.00;4974558;28;20031;-74
2023/10/18 08:52:08;;;;;;;10.57;4.40;;;;;;;22.63;58.96;97839.31;4974613;28;20126;-74
2023/10/18 08:54:39;;;;;;;12.65;4.78;;;;;;;22.63;59.07;97841.97;4974822;28;20077;-74
2023/10/18 08:57:07;;;;;;;12.38;4.70;;;;;;;22.63;59.20;97845.50;4974626;28;20023;-74
2023/10/18 09:02:39;;;;;;;13.10;5.55;;;;;;;22.65;58.99;97850.66;4933722;29;20066;-74
2023/10/18 09:05:06;;;;;;;9.45;3.88;;;;;;;22.65;58.91;97845.31;4933253;29;20412;-74
2023/10/18 09:07:50;;;;;;;9.85;4.32;;;;;;;22.66;59.23;97852.31;4933841;29;20047;-74
2023/10/18 09:10:46;;;;;;;10.90;4.53;;;;;;;22.69;58.83;97868.00;4933909;29;20086;-74
2023/10/18 09:18:23;;;;;;;12.70;4.40;;;;;;;22.70;58.99;97869.66;4933368;29;20508;-74
2023/10/18 09:20:49;;;;;;;10.00;4.68;;;;;;;22.71;58.99;97871.34;4932051;29;20031;-74
2023/10/18 09:23:22;;;;;;;11.75;4.95;;;;;;;22.72;59.08;97866.88;4914651;29;20056;-76
2023/10/18 09:26:10;;;;;;;12.90;4.63;;;;;;;22.69;59.20;97857.34;4914228;29;20465;-74
2023/10/18 09:28:35;;;;;;;;;;;;;;;22.72;59.06;97858.88;4914457;29;20046;-75
2023/10/18 09:31:09;;;;;;;;;;;;;;;22.73;58.83;97857.91;4914357;29;20127;-74
2023/10/18 09:33:36;;;;;;;11.57;4.47;;;;;;;22.73;59.14;97864.06;4913588;29;20387;-74
2023/10/18 09:36:02;;;;;;;12.02;4.68;;;;;;;22.73;58.84;97866.72;4921917;29;20036;-74
2023/10/18 09:38:41;;;;;;;12.77;5.10;;;;;;;22.74;59.12;97865.75;4947252;28;20038;-75
2023/10/18 09:41:07;;;;;;;10.52;4.60;;;;;;;22.74;58.87;97863.09;4973750;28;20026;-75
2023/10/18 09:43:35;;;;;;;10.15;4.32;;;;;;;22.75;59.10;97864.75;4973695;28;20045;-75
2023/10/18 09:46:01;;;;;;;10.70;4.20;;;;;;;22.76;58.74;97866.44;4973572;28;20030;-75
2023/10/18 09:48:32;;;;;;;11.88;4.78;;;;;;;22.76;59.05;97863.78;4973389;28;20086;-75
2023/10/18 09:51:06;;;;;;;13.65;4.82;;;;;;;22.76;58.89;97869.09;4973552;28;20046;-74
2023/10/18 09:53:35;;;;;;;10.82;4.15;;;;;;;22.77;58.80;97868.09;4973804;28;20054;-74
2023/10/18 09:56:02;;;;;;;13.25;5.38;;;;;;;22.78;58.63;97877.78;4968903;28;20056;-77
2023/10/18 09:58:33;;;;;;;12.68;4.68;;;;;;;22.79;58.76;97878.59;4973672;28;20039;-75
2023/10/18 10:01:13;;;;;;;10.77;4.85;;;;;;;22.79;59.30;97890.09;4973635;28;20568;-74
2023/10/18 10:03:41;;;;;;;11.05;4.88;;;;;;;22.78;58.90;97888.41;4973254;28;20091;-74
2023/10/18 10:06:09;;;;;;;12.02;5.07;;;;;;;22.79;59.01;97890.09;4973301;28;20030;-74
2023/10/18 10:08:36;;;;;;;12.65;5.15;;;;;;;22.80;59.06;97891.75;4973455;28;20086;-74
2023/10/18 10:11:13;;;;;;;11.85;4.53;;;;;;;22.80;59.40;97897.06;4973404;28;20061;-75
2023/10/18 10:13:39;;;;;;;9.57;4.20;;;;;;;22.80;59.22;97891.75;4973395;28;20038;-75
2023/10/18 10:16:09;;;;;;;9.70;4.97;;;;;;;22.80;59.15;97891.75;4973444;28;20399;-75
2023/10/18 10:18:38;;;;;;;15.50;5.70;;;;;;;22.83;58.99;97911.06;4972995;28;20498;-74
2023/10/18 10:21:08;;;;;;;11.82;5.13;;;;;;;22.82;59.01;97904.06;4973515;28;20209;-74
2023/10/18 10:23:35;;;;;;;11.52;5.07;;;;;;;22.83;59.20;97905.75;4972043;28;20094;-74
2023/10/18 10:26:22;;;;;;;13.00;5.03;;;;;;;22.84;59.11;97912.72;4973275;28;20029;-74
2023/10/18 10:31:55;;;;;;;11.70;5.05;;;;;;;22.86;59.27;97905.47;4932284;29;20032;-74
2023/10/18 10:34:32;;;;;;;10.30;4.70;;;;;;;22.86;59.43;97900.97;4894503;29;20189;-74
2023/10/18 10:37:09;;;;;;;13.45;5.30;;;;;;;22.85;59.22;97904.63;4894575;29;20033;-74
2023/10/18 10:39:44;;;;;;;10.73;4.55;;;;;;;22.86;58.88;97895.66;4894701;29;20043;-75
2023/10/18 10:42:19;;;;;;;11.77;5.10;;;;;;;22.88;58.89;97908.81;4894595;29;20041;-74
2023/10/18 10:44:56;;;;;;;10.52;4.95;;;;;;;22.88;59.20;97908.81;4898155;29;20029;-75
2023/10/18 10:47:29;;;;;;;12.82;5.50;;;;;;;22.88;58.90;97916.78;4898220;29;20052;-74
2023/10/18 10:49:58;;;;;;;10.50;4.63;;;;;;;22.90;59.14;97922.81;4898507;29;20128;-74
2023/10/18 10:52:29;;;;;;;11.32;4.72;;;;;;;22.90;58.81;97922.81;4898236;29;20064;-74
2023/10/18 10:55:17;;;;;;;11.25;4.82;;;;;;;22.90;58.99;97928.97;4898219;29;20044;-73
2023/10/18 10:57:45;;;;;;;10.15;4.97;;;;;;;22.92;59.35;97932.31;4898190;29;20037;-75
2023/10/18 11:00:22;;;;;;;11.32;4.60;;;;;;;22.92;58.98;97931.47;4902499;29;20028;-75
2023/10/18 11:02:54;;;;;;;11.52;5.18;;;;;;;22.93;58.91;97933.16;4917117;29;20488;-74
2023/10/18 11:05:24;;;;;;;9.25;4.70;;;;;;;22.93;59.11;97928.69;4917086;29;20116;-77
2023/10/18 11:07:51;;;;;;;9.75;5.13;;;;;;;22.95;58.95;97933.84;4912216;29;20098;-75
2023/10/18 11:10:17;;;;;;;12.10;4.30;;;;;;;22.94;59.16;97918.88;4957334;29;20082;-75
2023/10/18 11:12:46;;;;;;;13.77;5.03;;;;;;;22.96;58.96;97918.72;4957266;29;20028;-75
2023/10/18 11:15:18;;;;;;;12.25;4.47;;;;;;;22.97;58.93;97912.44;4956787;29;20030;-74
2023/10/18 11:17:45;;;;;;;11.98;5.20;;;;;;;22.96;59.27;97911.59;4963979;28;20022;-75
2023/10/18 11:20:20;;;;;;;13.05;5.38;;;;;;;22.96;59.08;97898.31;4976479;28;20039;-74
2023/10/18 11:22:50;;;;;;;13.98;5.82;;;;;;;22.98;59.07;97895.47;4976489;28;20037;-74
2023/10/18 11:25:30;;;;;;;16.35;6.43;;;;;;;22.98;58.98;97899.00;4976303;28;20031;-73
2023/10/18 11:28:00;;;;;;;15.27;5.78;;;;;;;22.97;59.14;97892.00;4976437;28;20031;-71
2023/10/18 18:00:52;;;;;;;2.97;1.48;;;;;;;23.43;58.36;97940.03;5373842;23;20042;-74
2023/10/18 18:03:18;;;;;;;3.40;1.75;;;;;;;23.45;57.91;97940.72;4981219;28;20117;-74
2023/10/18 18:05:44;;;;;;;4.25;1.80;;;;;;;23.45;58.34;97927.41;4983635;28;20533;-74
2023/10/18 18:08:22;;;;;;;5.13;2.05;;;;;;;23.46;58.19;97937.09;4986547;28;20042;-75
2023/10/18 18:10:49;;;;;;;4.22;2.00;;;;;;;23.42;58.86;97943.69;4978705;28;20053;-75
2023/10/18 18:13:16;;;;;;;3.70;2.05;;;;;;;23.45;58.28;97942.56;4978602;28;20405;-74
2023/10/18 18:15:42;;;;;;;4.07;2.28;;;;;;;23.45;58.19;97945.22;4981636;28;20026;-76
2023/10/18 18:18:10;;;;;;;4.38;2.13;;;;;;;23.45;58.68;97947.88;4983619;28;20105;-74
2023/10/18 18:20:36;;;;;;;3.80;2.17;;;;;;;23.45;58.49;97947.88;4986359;28;20054;-74
2023/10/18 18:23:01;;;;;;;4.57;2.22;;;;;;;23.45;58.09;97947.88;4982375;28;20062;-75
2023/10/18 18:25:26;;;;;;;4.47;2.22;;;;;;;23.44;58.41;97946.19;4977576;28;20023;-75
2023/10/18 18:27:52;;;;;;;4.30;2.30;;;;;;;23.43;58.45;97949.81;4973750;28;20065;-74
2023/10/18 18:30:18;;;;;;;5.30;2.63;;;;;;;23.43;58.89;97950.69;4985801;28;20085;-74
2023/10/18 18:32:44;;;;;;;4.68;2.20;;;;;;;23.41;58.50;97952.66;4981131;28;20034;-75
2023/10/18 18:35:12;;;;;;;6.07;2.70;;;;;;;23.40;58.43;97950.97;4984637;28;20122;-75
2023/10/18 18:37:38;;;;;;;5.40;2.75;;;;;;;23.41;58.56;97951.81;4979506;28;20026;-75
2023/10/18 18:40:07;;;;;;;13.23;6.60;;;;;;;23.40;58.41;97944.81;4980127;28;20406;-74
2023/10/18 18:42:37;;;;;;;7.75;3.70;;;;;;;23.40;58.24;97944.81;4986224;28;20085;-75
2023/10/18 18:45:08;;;;;;;16.65;8.40;;;;;;;23.39;58.37;97943.13;4991460;28;20034;-74
2023/10/18 18:47:44;;;;;;;7.43;3.58;;;;;;;23.37;58.67;97947.75;4991821;28;20030;-72
2023/10/18 18:50:10;;;;;;;6.75;3.17;;;;;;;23.35;58.86;97945.25;4992650;28;20146;-74
2023/10/18 18:52:39;;;;;;;5.50;2.40;;;;;;;23.36;58.62;97944.25;4976921;28;20081;-74
2023/10/18 18:55:08;;;;;;;4.03;2.20;;;;;;;23.32;58.50;97938.41;4978542;28;20022;-75
2023/10/18 18:57:38;;;;;;;4.45;2.47;;;;;;;23.35;58.86;97941.75;4976699;28;20367;-75
2023/10/18 19:00:09;;;;;;;3.83;1.80;;;;;;;23.32;58.78;97940.22;4990512;28;20057;-74
2023/10/18 19:02:35;;;;;;;3.60;1.95;;;;;;;23.28;58.73;97930.81;4987488;28;20033;-74
2023/10/18 19:05:00;;;;;;;4.68;2.58;;;;;;;23.28;58.52;97936.97;4993582;28;20027;-74
2023/10/18 19:07:25;;;;;;;4.30;2.00;;;;;;;23.26;58.72;97930.13;4996168;28;20493;-74
2023/10/18 19:09:51;;;;;;;3.40;2.00;;;;;;;23.27;58.74;97924.66;4996097;28;20113;-74
2023/10/18 19:12:20;;;;;;;4.43;2.28;;;;;;;23.27;58.70;97924.66;4996010;28;20109;-74
2023/10/18 19:14:47;;;;;;;4.60;2.08;;;;;;;23.27;58.71;97918.47;4995479;28;20118;-74